Time;durP1;ratioP1;P1;durP2;ratioP2;P2;SDS_P1;SDS_P2;PMS_P1;PMS_P2;Temp;Humidity;BMP_temperature;BMP_pressure;BME280_temperature;BME280_humidity;BME280_pressure;Samples;Min_cycle;Max_cycle;Signal;HPM_P1;HPM_P2
2023/08/24 00:00:54;;;;;;;6.22;2.85;;;18.90;71.10;;;;;;5074050;28;20028;-67
2023/08/24 00:03:22;;;;;;;7.10;2.72;;;18.70;70.00;;;;;;5074055;28;20024;-67
2023/08/24 00:05:51;;;;;;;8.18;3.13;;;19.00;69.70;;;;;;5073923;28;20568;-67
2023/08/24 00:08:19;;;;;;;6.05;2.80;;;19.40;68.90;;;;;;5073924;28;20036;-67
2023/08/24 00:10:46;;;;;;;6.40;2.55;;;19.20;67.70;;;;;;5073741;28;20162;-67
2023/08/24 00:13:15;;;;;;;9.02;3.20;;;19.50;68.10;;;;;;5073932;28;20021;-67
2023/08/24 00:15:43;;;;;;;7.80;3.08;;;19.40;66.90;;;;;;5072927;28;20139;-67
2023/08/24 00:18:10;;;;;;;6.90;2.88;;;18.10;69.50;;;;;;5073252;28;20036;-67
2023/08/24 00:20:38;;;;;;;8.55;3.53;;;17.70;72.40;;;;;;5074483;28;20035;-67
2023/08/24 00:23:05;;;;;;;5.22;2.75;;;18.30;70.40;;;;;;5073731;28;20028;-68
2023/08/24 00:25:33;;;;;;;7.28;2.60;;;18.80;69.70;;;;;;5074678;28;20028;-67
2023/08/24 00:28:01;;;;;;;4.95;2.38;;;19.10;67.40;;;;;;5073553;28;20040;-67
2023/08/24 00:30:28;;;;;;;3.95;1.70;;;18.80;69.80;;;;;;5074729;28;20024;-68
2023/08/24 00:32:56;;;;;;;6.75;2.08;;;18.90;69.40;;;;;;5074727;28;20074;-67
2023/08/24 00:35:23;;;;;;;4.50;1.85;;;19.40;67.60;;;;;;5073745;28;20348;-68
2023/08/24 00:37:51;;;;;;;7.93;2.53;;;19.80;66.50;;;;;;5073372;28;20036;-68
2023/08/24 00:40:18;;;;;;;4.57;1.90;;;19.20;67.50;;;;;;5073119;28;20534;-67
2023/08/24 00:42:47;;;;;;;8.55;2.63;;;19.10;67.90;;;;;;5073937;28;20420;-67
2023/08/24 00:45:15;;;;;;;5.60;2.30;;;18.50;69.30;;;;;;5073275;28;20063;-68
2023/08/24 00:47:45;;;;;;;4.80;2.40;;;18.40;70.30;;;;;;5073325;28;20017;-69
2023/08/24 00:50:13;;;;;;;4.60;2.20;;;18.70;68.50;;;;;;5073398;28;20052;-68
2023/08/24 00:52:42;;;;;;;6.82;2.40;;;18.60;67.60;;;;;;5074489;28;20035;-67
2023/08/24 00:55:11;;;;;;;5.68;2.08;;;18.50;68.00;;;;;;5073301;28;20025;-68
2023/08/24 00:57:44;;;;;;;4.80;1.90;;;19.50;66.70;;;;;;5073394;28;20028;-68
2023/08/24 01:00:13;;;;;;;3.17;1.90;;;20.30;65.90;;;;;;5074358;28;20099;-67
2023/08/24 01:02:41;;;;;;;4.43;1.92;;;20.80;63.30;;;;;;5073275;28;20032;-68
2023/08/24 01:05:09;;;;;;;6.05;2.10;;;21.20;63.60;;;;;;5077241;28;20166;-68
2023/08/24 01:07:39;;;;;;;6.15;2.20;;;22.00;60.00;;;;;;5077754;28;20431;-68
2023/08/24 01:10:08;;;;;;;3.90;1.50;;;21.40;62.20;;;;;;5043969;28;20020;-67
2023/08/24 01:12:53;;;;;;;7.20;1.50;;;21.10;61.60;;;;;;5076715;28;20047;-68
2023/08/24 01:15:38;;;;;;;4.50;1.77;;;21.40;60.60;;;;;;5077832;28;20035;-69
2023/08/24 01:18:13;;;;;;;4.20;1.75;;;22.10;60.40;;;;;;5077001;28;20059;-68
2023/08/24 01:20:43;;;;;;;3.42;1.83;;;22.00;58.00;;;;;;5076865;28;20051;-68
2023/08/24 01:23:19;;;;;;;4.32;1.58;;;21.60;57.30;;;;;;5076822;28;20119;-68
2023/08/24 01:26:03;;;;;;;6.97;1.60;;;21.50;60.30;;;;;;5076580;28;20035;-68
2023/08/24 01:28:32;;;;;;;3.65;1.80;;;21.10;60.40;;;;;;5060075;28;20477;-68
2023/08/24 01:30:59;;;;;;;4.22;1.75;;;21.00;58.90;;;;;;5076424;28;20028;-67
2023/08/24 01:33:27;;;;;;;5.45;2.00;;;21.20;60.80;;;;;;5076570;28;20452;-68
2023/08/24 01:35:55;;;;;;;4.80;1.77;;;21.80;57.30;;;;;;5077561;28;20321;-68
2023/08/24 01:38:22;;;;;;;5.88;1.98;;;22.50;55.90;;;;;;5076313;28;20454;-68
2023/08/24 01:41:17;;;;;;;5.32;1.92;;;23.10;54.60;;;;;;5077380;28;20024;-68
2023/08/24 01:43:49;;;;;;;5.85;1.75;;;22.00;55.10;;;;;;5077259;28;20048;-67
2023/08/24 01:46:20;;;;;;;3.70;1.08;;;21.10;56.70;;;;;;5077315;28;20473;-67
2023/08/24 01:48:49;;;;;;;4.38;1.35;;;20.60;55.70;;;;;;5059492;28;20035;-69
2023/08/24 01:51:17;;;;;;;7.25;1.50;;;21.00;55.10;;;;;;5076218;28;20024;-68
2023/08/24 01:53:46;;;;;;;5.18;1.45;;;21.20;55.10;;;;;;5076147;28;20021;-67
2023/08/24 01:56:16;;;;;;;5.65;1.60;;;21.10;55.30;;;;;;5076036;28;20024;-68
2023/08/24 01:58:43;;;;;;;4.97;1.52;;;21.10;55.00;;;;;;5076836;28;20028;-68
2023/08/24 02:01:12;;;;;;;6.15;1.50;;;21.40;54.90;;;;;;5075923;28;20090;-68
2023/08/24 02:03:40;;;;;;;7.65;2.00;;;21.50;56.00;;;;;;5075916;28;20038;-68
2023/08/24 02:06:07;;;;;;;7.07;1.77;;;21.60;56.10;;;;;;5075694;28;20112;-68
2023/08/24 02:08:35;;;;;;;4.55;1.67;;;22.10;54.70;;;;;;5075817;28;20036;-68
2023/08/24 02:11:02;;;;;;;5.85;1.55;;;21.40;55.80;;;;;;5075646;28;20423;-68
2023/08/24 02:13:30;;;;;;;5.93;2.40;;;21.40;55.90;;;;;;5075512;28;20328;-69
2023/08/24 02:16:14;;;;;;;4.80;2.17;;;22.50;52.10;;;;;;5075201;28;20029;-68
2023/08/24 02:18:42;;;;;;;5.13;1.50;;;23.10;51.80;;;;;;5075416;28;20032;-69
2023/08/24 02:21:11;;;;;;;4.90;1.25;;;21.40;54.20;;;;;;5076447;28;20056;-67
2023/08/24 02:23:40;;;;;;;5.57;1.35;;;20.80;54.20;;;;;;5075390;28;20470;-68
2023/08/24 02:26:08;;;;;;;3.60;1.40;;;20.90;55.40;;;;;;5075325;28;20033;-69
2023/08/24 02:28:38;;;;;;;3.28;1.23;;;20.70;55.30;;;;;;5075363;28;20025;-68
2023/08/24 02:31:05;;;;;;;4.10;1.30;;;20.80;56.50;;;;;;5075342;28;20447;-68
2023/08/24 02:33:33;;;;;;;5.82;1.35;;;20.50;56.30;;;;;;5075320;28;20201;-68
2023/08/24 02:36:01;;;;;;;3.08;1.25;;;21.00;55.90;;;;;;5076244;28;20035;-69
2023/08/24 02:38:29;;;;;;;3.97;1.25;;;21.90;54.20;;;;;;5075036;28;20032;-69
2023/08/24 02:41:07;;;;;;;4.10;1.60;;;22.20;51.30;;;;;;5076205;28;20070;-68
2023/08/24 02:43:35;;;;;;;4.82;1.25;;;22.40;52.20;;;;;;5075956;28;20045;-67
2023/08/24 02:46:07;;;;;;;4.55;1.65;;;22.40;51.20;;;;;;5075116;28;20082;-68
2023/08/24 02:48:34;;;;;;;;;;;22.10;54.00;;;;;;5058914;28;20053;-67
2023/08/24 02:51:04;;;;;;;7.22;1.50;;;22.10;53.30;;;;;;5074951;28;19904;-68
2023/08/24 02:53:33;;;;;;;5.97;1.75;;;22.20;52.60;;;;;;5075948;28;20017;-69
2023/08/24 02:56:00;;;;;;;5.88;1.58;;;22.30;53.00;;;;;;5075910;28;20025;-67
2023/08/24 02:58:28;;;;;;;5.18;1.52;;;22.60;52.80;;;;;;5074948;28;20024;-68
2023/08/24 03:00:55;;;;;;;5.38;1.63;;;22.50;52.80;;;;;;5074928;28;20036;-68
2023/08/24 03:03:24;;;;;;;3.88;1.48;;;22.60;53.80;;;;;;5074814;28;20039;-69
2023/08/24 03:06:00;;;;;;;4.95;1.38;;;22.50;54.80;;;;;;5074694;28;20052;-67
2023/08/24 03:08:29;;;;;;;5.70;1.75;;;22.40;53.50;;;;;;5074669;28;20073;-69
2023/08/24 03:10:57;;;;;;;7.15;1.48;;;23.00;51.40;;;;;;5074230;28;20024;-69
2023/08/24 03:13:24;;;;;;;4.97;1.40;;;22.90;51.70;;;;;;5074704;28;20040;-68
2023/08/24 03:15:52;;;;;;;5.88;1.65;;;23.30;50.30;;;;;;5074637;28;20025;-70
2023/08/24 03:18:20;;;;;;;4.82;1.70;;;23.10;51.30;;;;;;5074600;28;20029;-69
2023/08/24 03:20:49;;;;;;;5.45;1.60;;;22.70;51.10;;;;;;5074864;28;20031;-69
2023/08/24 03:23:17;;;;;;;5.68;1.50;;;21.40;53.90;;;;;;5074487;28;20040;-70
2023/08/24 03:25:45;;;;;;;7.40;1.58;;;20.80;55.70;;;;;;5074121;28;20025;-70
2023/08/24 03:28:12;;;;;;;4.30;1.50;;;20.00;57.20;;;;;;5074837;28;20017;-68
2023/08/24 03:30:46;;;;;;;3.97;1.85;;;20.10;56.60;;;;;;5074334;28;20033;-68
2023/08/24 03:33:14;;;;;;;5.75;1.90;;;20.10;56.20;;;;;;5075164;28;20319;-68
2023/08/24 03:35:42;;;;;;;3.60;1.10;;;20.00;55.70;;;;;;5074073;28;20031;-69
2023/08/24 03:38:09;;;;;;;5.75;1.40;;;20.00;55.00;;;;;;5073929;28;20127;-68
2023/08/24 03:40:37;;;;;;;5.43;1.55;;;20.10;55.60;;;;;;5074037;28;20029;-68
2023/08/24 03:43:05;;;;;;;5.43;1.20;;;20.00;56.10;;;;;;5073928;28;20458;-68
2023/08/24 03:45:33;;;;;;;4.40;1.27;;;20.10;56.10;;;;;;5074088;28;20094;-68
2023/08/24 03:48:04;;;;;;;4.15;1.15;;;20.20;55.70;;;;;;5074032;28;20053;-69
2023/08/24 03:50:31;;;;;;;3.35;1.27;;;20.10;55.10;;;;;;5075141;28;20025;-68
2023/08/24 03:52:59;;;;;;;4.05;1.30;;;20.20;54.30;;;;;;5074112;28;20531;-68
2023/08/24 03:55:27;;;;;;;4.38;1.20;;;20.40;54.30;;;;;;5074062;28;20025;-70
2023/08/24 03:57:54;;;;;;;3.83;1.20;;;20.60;53.70;;;;;;5073941;28;20039;-68
2023/08/24 04:00:22;;;;;;;6.65;1.67;;;20.50;54.50;;;;;;5074130;28;20025;-68
2023/08/24 04:02:54;;;;;;;3.33;1.25;;;20.20;54.00;;;;;;5073514;28;20032;-68
2023/08/24 04:05:21;;;;;;;5.97;1.70;;;20.70;55.00;;;;;;5073316;28;20074;-68
2023/08/24 04:07:49;;;;;;;5.18;1.38;;;21.40;52.90;;;;;;5073356;28;20079;-69
2023/08/24 04:10:16;;;;;;;3.42;1.20;;;22.10;51.50;;;;;;5074618;28;20016;-68
2023/08/24 04:12:44;;;;;;;3.65;1.40;;;22.40;51.40;;;;;;5074798;28;20020;-68
2023/08/24 04:15:13;;;;;;;4.75;1.13;;;22.50;51.90;;;;;;5073975;28;20020;-69
2023/08/24 04:17:40;;;;;;;4.50;1.08;;;22.20;49.70;;;;;;5074770;28;20016;-69
2023/08/24 04:20:12;;;;;;;5.50;1.85;;;22.10;50.40;;;;;;5073675;28;20370;-69
2023/08/24 04:22:43;;;;;;;;;;;22.10;50.30;;;;;;5074242;28;20036;-67
2023/08/24 04:25:11;;;;;;;4.75;1.30;;;21.60;50.80;;;;;;5073751;28;19908;-68
2023/08/24 04:27:46;;;;;;;3.90;1.52;;;20.80;52.20;;;;;;5073383;28;20469;-68
2023/08/24 04:30:16;;;;;;;4.10;1.40;;;20.10;53.60;;;;;;5074649;28;20052;-67
2023/08/24 04:32:44;;;;;;;4.75;1.50;;;20.00;54.60;;;;;;5073498;28;20127;-67
2023/08/24 04:35:11;;;;;;;3.67;1.08;;;20.00;55.70;;;;;;5073623;28;20054;-69
2023/08/24 04:37:39;;;;;;;2.42;0.98;;;20.10;54.60;;;;;;5074345;28;20029;-67
2023/08/24 04:40:07;;;;;;;5.60;1.15;;;20.30;53.70;;;;;;5077653;28;20105;-67
2023/08/24 04:42:35;;;;;;;3.92;1.50;;;20.20;54.20;;;;;;5077393;28;20158;-68
2023/08/24 04:45:02;;;;;;;3.22;1.40;;;20.70;53.30;;;;;;5077452;28;20401;-68
2023/08/24 04:47:30;;;;;;;4.88;1.55;;;20.40;53.30;;;;;;5078301;28;20435;-69
2023/08/24 04:49:58;;;;;;;4.47;1.40;;;20.10;53.90;;;;;;5077286;28;20039;-68
2023/08/24 04:52:25;;;;;;;2.78;1.20;;;19.90;54.10;;;;;;5077300;28;20021;-67
2023/08/24 04:54:53;;;;;;;3.03;1.10;;;19.60;54.30;;;;;;5077286;28;20128;-68
2023/08/24 04:57:21;;;;;;;3.67;1.30;;;19.50;55.40;;;;;;5077115;28;20350;-68
2023/08/24 04:59:48;;;;;;;5.13;1.20;;;19.60;56.10;;;;;;5076919;28;20039;-68
2023/08/24 05:02:16;;;;;;;3.95;1.23;;;19.50;55.70;;;;;;5077189;28;20109;-68
2023/08/24 05:04:43;;;;;;;5.90;1.27;;;19.60;54.90;;;;;;5078022;28;20052;-67
2023/08/24 05:07:11;;;;;;;2.58;1.13;;;19.50;55.50;;;;;;5076947;28;20035;-68
2023/08/24 05:09:38;;;;;;;3.45;1.10;;;19.40;55.60;;;;;;5076874;28;20021;-67
2023/08/24 05:12:07;;;;;;;2.22;0.95;;;19.50;55.90;;;;;;5076883;28;20021;-67
2023/08/24 05:14:35;;;;;;;5.35;1.52;;;19.40;55.80;;;;;;5076884;28;20028;-68
2023/08/24 05:17:03;;;;;;;4.10;1.00;;;20.10;54.60;;;;;;5076908;28;20029;-68
2023/08/24 05:19:30;;;;;;;2.95;0.95;;;20.00;54.20;;;;;;5076669;28;20496;-67
2023/08/24 05:21:58;;;;;;;4.07;1.23;;;19.60;55.20;;;;;;5076720;28;20358;-68
2023/08/24 05:24:25;;;;;;;3.53;1.45;;;19.60;56.10;;;;;;5076645;28;20387;-67
2023/08/24 05:26:53;;;;;;;4.35;1.33;;;19.60;55.70;;;;;;5076701;28;20024;-68
2023/08/24 05:29:21;;;;;;;4.40;1.92;;;21.90;51.00;;;;;;5076550;28;20021;-67
2023/08/24 05:31:48;;;;;;;6.00;1.70;;;23.60;47.60;;;;;;5077588;28;20021;-68
2023/08/24 05:34:16;;;;;;;3.80;1.50;;;22.00;50.10;;;;;;5076593;28;20043;-68
2023/08/24 05:36:44;;;;;;;6.28;1.73;;;21.10;52.30;;;;;;5076577;28;20070;-67
2023/08/24 05:39:11;;;;;;;3.00;1.10;;;20.60;52.90;;;;;;5076443;28;20470;-68
2023/08/24 05:41:39;;;;;;;4.88;1.50;;;20.00;53.90;;;;;;5076671;28;20059;-68
2023/08/24 05:44:07;;;;;;;3.97;1.05;;;19.60;55.50;;;;;;5076223;28;20076;-68
2023/08/24 05:46:34;;;;;;;3.22;1.15;;;19.40;55.50;;;;;;5077133;28;20409;-67
2023/08/24 05:49:02;;;;;;;6.53;1.30;;;19.20;55.80;;;;;;5075803;28;20467;-68
2023/08/24 05:51:30;;;;;;;4.25;1.48;;;19.20;56.50;;;;;;5075448;28;20046;-68
2023/08/24 05:53:58;;;;;;;6.30;1.10;;;20.10;54.90;;;;;;5076512;28;20024;-68
2023/08/24 05:56:27;;;;;;;3.55;1.30;;;20.60;53.40;;;;;;5076330;28;20029;-68
2023/08/24 05:58:58;;;;;;;3.80;1.23;;;20.80;52.60;;;;;;5077248;28;20028;-68
2023/08/24 06:01:26;;;;;;;2.78;1.17;;;21.50;51.40;;;;;;5059314;28;20115;-68
2023/08/24 06:03:54;;;;;;;4.60;1.30;;;23.30;46.50;;;;;;5076914;28;20052;-68
2023/08/24 06:06:22;;;;;;;2.80;1.00;;;23.70;45.50;;;;;;5075961;28;20043;-68
2023/08/24 06:08:50;;;;;;;3.47;1.08;;;23.30;45.20;;;;;;5075707;28;20029;-67
2023/08/24 06:11:18;;;;;;;2.97;1.00;;;22.10;48.50;;;;;;5076752;28;20070;-67
2023/08/24 06:13:46;;;;;;;3.95;1.25;;;21.50;48.90;;;;;;5075622;28;20494;-67
2023/08/24 06:16:13;;;;;;;3.65;0.98;;;20.90;49.20;;;;;;5075752;28;20050;-67
2023/08/24 06:18:41;;;;;;;5.50;0.93;;;19.90;52.10;;;;;;5076563;28;20027;-69
2023/08/24 06:21:09;;;;;;;3.15;1.00;;;19.30;52.50;;;;;;5075019;28;20028;-68
2023/08/24 06:23:36;;;;;;;3.25;0.90;;;19.00;53.60;;;;;;5075123;28;20051;-68
2023/08/24 06:26:04;;;;;;;2.60;1.00;;;18.90;54.20;;;;;;5075936;28;20451;-68
2023/08/24 06:28:32;;;;;;;3.88;1.10;;;21.10;49.90;;;;;;5075421;28;20111;-68
2023/08/24 06:31:01;;;;;;;4.00;1.05;;;23.10;44.90;;;;;;5075325;28;20032;-68
2023/08/24 06:33:30;;;;;;;3.05;1.20;;;22.70;45.00;;;;;;5076318;28;20021;-67
2023/08/24 06:35:58;;;;;;;3.20;0.88;;;22.70;44.80;;;;;;5075264;28;20032;-69
2023/08/24 06:38:26;;;;;;;3.17;0.95;;;20.80;47.60;;;;;;5075165;28;20025;-68
2023/08/24 06:40:54;;;;;;;5.22;1.13;;;19.10;51.70;;;;;;5076186;28;20161;-68
2023/08/24 06:43:22;;;;;;;2.47;1.00;;;18.80;53.90;;;;;;5075659;28;20052;-68
2023/08/24 06:45:49;;;;;;;3.03;1.05;;;18.50;54.30;;;;;;5074368;28;20465;-68
2023/08/24 06:48:18;;;;;;;2.63;0.90;;;18.30;54.40;;;;;;5074990;28;20029;-68
2023/08/24 06:50:46;;;;;;;2.55;1.00;;;18.10;55.10;;;;;;5075005;28;20020;-68
2023/08/24 06:53:14;;;;;;;4.15;0.82;;;17.90;56.00;;;;;;5075986;28;20020;-67
2023/08/24 06:55:42;;;;;;;3.50;1.10;;;17.80;56.80;;;;;;5074910;28;20025;-68
2023/08/24 06:58:10;;;;;;;1.70;0.98;;;17.60;57.60;;;;;;5074811;28;20029;-69
2023/08/24 07:00:37;;;;;;;4.80;1.20;;;17.60;56.70;;;;;;5075007;28;20118;-67
2023/08/24 07:03:05;;;;;;;3.10;0.98;;;17.50;57.60;;;;;;5075320;28;20028;-68
2023/08/24 07:05:33;;;;;;;3.35;1.40;;;17.50;57.80;;;;;;5074967;28;20052;-68
2023/08/24 07:08:03;;;;;;;5.20;1.10;;;17.40;57.70;;;;;;5075790;28;20438;-69
2023/08/24 07:10:30;;;;;;;2.10;1.00;;;17.30;57.70;;;;;;5074885;28;20034;-68
2023/08/24 07:12:58;;;;;;;2.60;1.17;;;17.20;58.20;;;;;;5074716;28;20074;-69
2023/08/24 07:15:26;;;;;;;3.33;1.35;;;17.20;58.50;;;;;;5074349;28;20032;-68
2023/08/24 07:17:54;;;;;;;4.97;1.80;;;17.10;58.50;;;;;;5074399;28;20047;-68
2023/08/24 07:20:21;;;;;;;3.22;1.35;;;17.00;59.30;;;;;;5075171;28;20025;-68
2023/08/24 07:22:50;;;;;;;4.10;1.23;;;17.00;58.70;;;;;;5075231;28;20227;-69
2023/08/24 07:25:18;;;;;;;3.00;1.77;;;16.90;59.30;;;;;;5074769;28;20032;-68
2023/08/24 07:27:46;;;;;;;3.10;1.10;;;16.80;59.40;;;;;;5075527;28;20347;-67
2023/08/24 07:30:14;;;;;;;3.97;1.60;;;16.70;60.00;;;;;;5074298;28;20434;-67
2023/08/24 07:32:42;;;;;;;3.22;1.67;;;16.60;60.20;;;;;;5075335;28;20025;-68
2023/08/24 07:35:10;;;;;;;4.45;1.40;;;16.50;60.50;;;;;;5075378;28;20051;-67
2023/08/24 07:37:37;;;;;;;5.45;1.48;;;16.50;61.10;;;;;;5074220;28;20024;-67
2023/08/24 07:40:06;;;;;;;3.30;1.20;;;16.50;61.00;;;;;;5075138;28;20024;-69
2023/08/24 07:42:48;;;;;;;4.65;1.45;;;16.50;60.80;;;;;;5074019;28;20033;-67
2023/08/24 07:45:15;;;;;;;4.90;1.40;;;16.30;61.10;;;;;;5074204;28;20029;-68
2023/08/24 07:47:44;;;;;;;2.25;1.15;;;16.30;61.20;;;;;;5073982;28;20021;-68
2023/08/24 07:50:12;;;;;;;5.25;1.40;;;16.20;61.40;;;;;;5073916;28;20021;-67
2023/08/24 07:52:40;;;;;;;3.42;1.30;;;16.10;61.80;;;;;;5074776;28;20108;-67
2023/08/24 07:55:09;;;;;;;2.80;1.38;;;16.00;61.80;;;;;;5075086;28;20029;-67
2023/08/24 07:57:37;;;;;;;4.30;1.38;;;16.00;61.80;;;;;;5074313;28;20024;-68
2023/08/24 08:00:09;;;;;;;3.70;1.63;;;15.90;62.50;;;;;;5075261;28;20044;-66
2023/08/24 08:02:37;;;;;;;4.65;1.67;;;15.90;62.30;;;;;;5074290;28;20024;-68
2023/08/24 08:05:12;;;;;;;4.82;1.92;;;15.80;62.90;;;;;;5074148;28;20033;-68
2023/08/24 08:07:40;;;;;;;2.50;1.58;;;15.70;62.80;;;;;;5074368;28;20031;-68
2023/08/24 08:10:08;;;;;;;3.30;1.20;;;15.70;62.80;;;;;;5073870;28;20024;-68
2023/08/24 08:12:36;;;;;;;5.15;1.38;;;15.70;62.80;;;;;;5074727;28;20035;-68
2023/08/24 08:15:05;;;;;;;6.13;1.63;;;15.70;63.10;;;;;;5078229;28;20021;-67
2023/08/24 08:17:33;;;;;;;6.70;1.70;;;15.60;63.50;;;;;;5079281;28;20028;-67
2023/08/24 08:20:05;;;;;;;6.30;1.80;;;15.60;63.60;;;;;;5077943;28;20099;-67
2023/08/24 08:22:38;;;;;;;;;;;15.50;63.90;;;;;;5078603;28;20024;-68
2023/08/24 08:25:07;;;;;;;4.15;1.50;;;15.50;64.00;;;;;;5077965;28;20352;-68
2023/08/24 08:27:34;;;;;;;4.15;1.42;;;15.40;64.30;;;;;;5078966;28;20048;-68
2023/08/24 08:30:04;;;;;;;4.75;1.60;;;15.40;64.90;;;;;;5077928;28;20086;-68
2023/08/24 08:32:32;;;;;;;4.00;1.70;;;15.30;65.20;;;;;;5077784;28;20062;-68
2023/08/24 08:35:01;;;;;;;3.55;1.63;;;15.20;65.90;;;;;;5078689;28;20055;-69
2023/08/24 08:37:31;;;;;;;2.50;1.73;;;15.10;66.30;;;;;;5077654;28;20120;-68
2023/08/24 08:39:59;;;;;;;4.95;1.83;;;15.00;67.30;;;;;;5077583;28;20052;-68
2023/08/24 08:42:27;;;;;;;3.22;1.75;;;15.00;66.60;;;;;;5077591;28;20031;-68
2023/08/24 08:44:55;;;;;;;4.82;1.60;;;15.00;66.30;;;;;;5077185;28;20036;-67
2023/08/24 08:47:23;;;;;;;3.58;1.70;;;14.90;66.40;;;;;;5077787;28;20048;-68
2023/08/24 08:49:53;;;;;;;6.13;2.17;;;14.90;66.40;;;;;;5077356;28;20024;-69
2023/08/24 08:52:20;;;;;;;5.63;2.72;;;14.90;66.70;;;;;;5077078;28;20020;-68
2023/08/24 08:54:48;;;;;;;4.47;2.20;;;14.90;67.30;;;;;;5077326;28;20025;-68
2023/08/24 08:57:18;;;;;;;5.80;2.13;;;14.80;67.00;;;;;;5077891;28;20076;-68
2023/08/24 08:59:46;;;;;;;4.00;1.98;;;14.80;67.00;;;;;;5076825;28;20024;-68
2023/08/24 09:02:17;;;;;;;4.88;1.98;;;14.70;67.10;;;;;;5077392;28;20020;-69
2023/08/24 09:04:47;;;;;;;5.60;2.08;;;14.60;67.50;;;;;;5076997;28;20020;-68
2023/08/24 09:07:15;;;;;;;5.85;2.42;;;14.60;68.10;;;;;;5077111;28;20024;-69
2023/08/24 09:09:43;;;;;;;4.47;1.95;;;14.50;68.80;;;;;;5076811;28;20016;-69
2023/08/24 09:12:11;;;;;;;5.60;2.00;;;14.40;69.20;;;;;;5078090;28;20465;-69
2023/08/24 09:14:39;;;;;;;5.68;2.10;;;14.30;69.80;;;;;;5076612;28;20028;-69
2023/08/24 09:17:07;;;;;;;3.63;1.70;;;14.20;70.30;;;;;;5077797;28;20021;-69
2023/08/24 09:19:38;;;;;;;4.68;2.15;;;14.20;70.40;;;;;;5076521;28;20028;-68
2023/08/24 09:22:08;;;;;;;5.18;2.63;;;14.20;70.30;;;;;;5076855;28;20435;-68
2023/08/24 09:24:36;;;;;;;4.82;2.13;;;14.10;71.20;;;;;;5075581;28;20040;-68
2023/08/24 09:27:22;;;;;;;3.92;2.10;;;14.10;70.90;;;;;;5076670;28;20027;-68
2023/08/24 09:29:54;;;;;;;3.65;1.98;;;13.90;72.00;;;;;;5076602;28;20037;-69
2023/08/24 09:32:32;;;;;;;5.32;2.53;;;13.80;72.30;;;;;;5076726;28;20458;-69
2023/08/24 09:35:10;;;;;;;4.43;2.70;;;13.40;74.00;;;;;;5077848;28;20075;-68
2023/08/24 09:37:38;;;;;;;6.60;2.50;;;13.30;74.70;;;;;;5076862;28;20028;-68
2023/08/24 09:40:08;;;;;;;4.65;2.05;;;13.40;73.80;;;;;;5076953;28;20028;-68
2023/08/24 09:42:39;;;;;;;5.63;2.38;;;13.30;74.90;;;;;;5076362;28;20025;-69
2023/08/24 09:45:10;;;;;;;4.05;2.42;;;13.20;74.90;;;;;;5076382;28;20020;-69
2023/08/24 09:47:37;;;;;;;4.97;2.40;;;13.20;75.10;;;;;;5077625;28;20052;-68
2023/08/24 09:50:06;;;;;;;4.45;2.97;;;13.20;74.60;;;;;;5076667;28;20017;-68
2023/08/24 09:52:36;;;;;;;9.07;4.13;;;13.20;75.10;;;;;;5076443;28;20037;-68
2023/08/24 09:55:10;;;;;;;8.95;5.28;;;13.20;74.90;;;;;;5076223;28;20020;-68
2023/08/24 09:57:42;;;;;;;12.70;4.88;;;13.20;74.80;;;;;;5076996;28;20029;-68
2023/08/24 10:00:14;;;;;;;6.28;4.57;;;13.10;75.10;;;;;;5076806;28;20043;-69
2023/08/24 10:02:52;;;;;;;6.90;4.30;;;13.20;74.90;;;;;;5076386;28;20029;-69
2023/08/24 10:05:26;;;;;;;6.55;4.15;;;13.00;75.40;;;;;;5059900;28;20044;-68
2023/08/24 10:07:59;;;;;;;5.38;3.95;;;13.00;75.60;;;;;;5075884;28;20032;-67
2023/08/24 10:10:27;;;;;;;;;;;13.00;76.30;;;;;;5077314;28;20029;-68
2023/08/24 10:13:01;;;;;;;7.00;4.30;;;13.00;75.80;;;;;;5075765;28;19950;-68
2023/08/24 10:15:29;;;;;;;5.65;4.05;;;12.90;76.10;;;;;;5075937;28;20031;-69
2023/08/24 10:17:59;;;;;;;8.30;3.85;;;12.80;76.40;;;;;;5075691;28;20024;-67
2023/08/24 10:20:28;;;;;;;7.28;4.00;;;12.70;76.60;;;;;;5075833;28;20033;-68
2023/08/24 10:22:58;;;;;;;8.60;4.20;;;12.60;77.30;;;;;;5076612;28;20029;-69
2023/08/24 10:25:26;;;;;;;8.00;4.15;;;12.50;78.00;;;;;;5076508;28;20457;-68
2023/08/24 10:27:54;;;;;;;7.22;3.58;;;12.50;77.70;;;;;;5075917;28;20049;-68
2023/08/24 10:30:23;;;;;;;5.28;3.65;;;12.40;77.60;;;;;;5075865;28;20443;-68
2023/08/24 10:32:53;;;;;;;6.68;3.42;;;12.30;78.30;;;;;;5075886;28;20024;-69
2023/08/24 10:35:22;;;;;;;5.95;3.90;;;12.30;78.50;;;;;;5075561;28;20027;-68
2023/08/24 10:37:52;;;;;;;6.95;4.18;;;12.00;79.10;;;;;;5076783;28;20020;-69
2023/08/24 10:40:43;;;;;;;5.30;3.35;;;11.70;80.10;;;;;;5076704;28;20017;-68
2023/08/24 10:43:11;;;;;;;8.57;4.05;;;11.80;79.90;;;;;;5075130;28;20066;-68
2023/08/24 10:45:59;;;;;;;6.25;3.22;;;11.90;79.40;;;;;;5075311;28;20040;-69
2023/08/24 10:48:32;;;;;;;6.53;3.20;;;11.90;80.00;;;;;;5075212;28;20111;-68
2023/08/24 10:51:16;;;;;;;6.50;3.33;;;12.00;79.80;;;;;;5059029;28;20403;-69
2023/08/24 10:53:58;;;;;;;7.35;4.10;;;12.00;79.60;;;;;;5075321;28;20021;-68
2023/08/24 10:56:40;;;;;;;8.83;4.03;;;11.90;79.70;;;;;;5058768;28;20038;-68
2023/08/24 10:59:16;;;;;;;6.60;3.67;;;11.60;80.60;;;;;;5075273;28;20111;-68
2023/08/24 11:01:55;;;;;;;8.70;3.97;;;11.50;80.90;;;;;;5075045;28;20362;-69
2023/08/24 11:04:23;;;;;;;7.53;4.32;;;11.50;80.90;;;;;;5074951;28;20032;-68
2023/08/24 11:06:54;;;;;;;7.43;4.22;;;11.40;81.30;;;;;;5076435;28;20031;-68
2023/08/24 11:09:22;;;;;;;6.30;3.60;;;11.10;81.90;;;;;;5075447;28;20028;-68
2023/08/24 11:12:04;;;;;;;5.65;3.67;;;10.90;82.80;;;;;;5074779;28;20422;-68
2023/08/24 11:14:48;;;;;;;6.28;3.70;;;10.90;82.80;;;;;;5058935;28;20025;-68
2023/08/24 11:17:22;;;;;;;6.30;3.72;;;10.90;83.20;;;;;;5075961;28;20025;-68
2023/08/24 11:19:55;;;;;;;6.25;4.00;;;10.80;83.50;;;;;;5074808;28;20032;-70
2023/08/24 11:22:24;;;;;;;8.82;4.32;;;10.90;83.30;;;;;;5075641;28;20087;-68
2023/08/24 11:24:51;;;;;;;10.65;4.75;;;11.00;82.90;;;;;;5075657;28;20055;-67
2023/08/24 11:27:22;;;;;;;8.55;4.57;;;10.90;83.10;;;;;;5073992;28;20070;-67
2023/08/24 11:30:00;;;;;;;6.63;4.05;;;11.00;83.00;;;;;;5073493;28;20020;-68
2023/08/24 11:32:27;;;;;;;7.18;4.72;;;10.80;83.40;;;;;;5075281;28;20327;-67
2023/08/24 11:34:56;;;;;;;8.65;4.50;;;10.80;83.10;;;;;;5075656;28;20095;-68
2023/08/24 11:37:24;;;;;;;5.97;4.68;;;10.70;83.90;;;;;;5074722;28;20074;-68
2023/08/24 11:39:51;;;;;;;8.20;4.93;;;10.70;83.90;;;;;;5074367;28;20040;-67
2023/08/24 11:42:19;;;;;;;7.93;5.00;;;10.70;83.70;;;;;;5075729;28;20043;-69
2023/08/24 11:44:48;;;;;;;8.27;4.57;;;10.60;84.00;;;;;;5074377;28;20442;-68
2023/08/24 11:47:16;;;;;;;7.68;4.47;;;10.70;84.00;;;;;;5074646;28;20476;-67
2023/08/24 11:49:44;;;;;;;8.82;5.60;;;10.80;83.20;;;;;;5074254;28;20028;-67
2023/08/24 11:52:11;;;;;;;7.82;5.50;;;10.70;83.60;;;;;;5074102;28;20052;-68
2023/08/24 11:54:39;;;;;;;6.55;4.72;;;10.60;83.90;;;;;;5073426;28;20440;-68
2023/08/24 11:57:09;;;;;;;8.57;4.93;;;10.50;84.10;;;;;;5074156;28;20032;-67
2023/08/24 11:59:39;;;;;;;7.75;5.03;;;10.60;84.20;;;;;;5073841;28;20021;-68
2023/08/24 12:02:06;;;;;;;7.43;5.03;;;10.30;84.70;;;;;;5072962;28;20017;-67
2023/08/24 12:04:43;;;;;;;7.03;4.85;;;10.30;85.10;;;;;;5073841;28;20025;-67
2023/08/24 12:07:14;;;;;;;11.95;6.45;;;10.40;84.70;;;;;;5073404;28;20021;-67
2023/08/24 12:09:42;;;;;;;7.90;4.63;;;10.40;84.90;;;;;;5074512;28;20027;-67
2023/08/24 12:12:17;;;;;;;10.48;4.90;;;10.50;84.60;;;;;;5074265;28;20082;-67
2023/08/24 12:14:47;;;;;;;7.22;4.55;;;10.50;84.00;;;;;;5073585;28;20024;-67
2023/08/24 12:17:16;;;;;;;8.57;4.68;;;10.50;84.20;;;;;;5074290;28;20025;-67
2023/08/24 12:19:44;;;;;;;8.93;5.10;;;10.50;83.50;;;;;;5073442;28;20021;-67
2023/08/24 12:22:20;;;;;;;9.60;5.50;;;10.40;84.10;;;;;;5073813;28;20410;-67
2023/08/24 12:24:47;;;;;;;7.28;4.78;;;10.00;85.50;;;;;;5073310;28;20446;-68
2023/08/24 12:27:27;;;;;;;7.82;4.78;;;9.90;86.00;;;;;;5074214;28;20016;-69
2023/08/24 12:29:55;;;;;;;7.95;4.40;;;9.80;86.50;;;;;;5074175;28;20020;-67
2023/08/24 12:32:25;;;;;;;6.70;4.85;;;9.70;86.80;;;;;;5073283;28;20115;-67
2023/08/24 12:34:54;;;;;;;7.80;4.68;;;9.70;87.10;;;;;;5073567;28;20067;-68
2023/08/24 12:37:22;;;;;;;9.88;4.95;;;9.70;87.20;;;;;;5073150;28;20024;-67
2023/08/24 12:39:49;;;;;;;5.80;4.55;;;9.60;87.40;;;;;;5074503;28;20031;-66
2023/08/24 12:42:16;;;;;;;6.05;4.32;;;9.50;87.70;;;;;;5073581;28;20086;-70
2023/08/24 12:44:44;;;;;;;8.05;4.80;;;9.60;87.20;;;;;;5073436;28;20086;-68
2023/08/24 12:47:11;;;;;;;8.23;4.43;;;9.60;87.70;;;;;;5073937;28;20108;-66
2023/08/24 12:49:39;;;;;;;7.65;4.80;;;9.70;87.00;;;;;;5073233;28;20063;-68
2023/08/24 12:52:07;;;;;;;5.53;4.40;;;9.90;86.30;;;;;;5074502;28;20350;-67
2023/08/24 12:54:34;;;;;;;9.00;4.97;;;10.00;85.70;;;;;;5074439;28;20072;-67
2023/08/24 12:57:02;;;;;;;9.35;4.93;;;10.00;85.70;;;;;;5073297;28;20032;-69
2023/08/24 12:59:30;;;;;;;7.93;5.07;;;10.00;85.60;;;;;;5075509;28;20020;-68